Terminal Aerodrome Forecast
Issued by NWS

Home | Current Version | Previous Version | Text Only | Print | Product List | Glossary On
Versions: 1 2 3 4 5 6 7 8 9 10 11 12 13 14 15
000
FTAK31 PAJN 241700
TAFAYA
TAF
PAYA 241723Z 2418/2518 VRB04KT P6SM OVC010
     FM241900 VRB06KT P6SM BKN021
     FM250300 VRB04KT P6SM OVC019
     FM250900 VRB05KT P6SM VCSH OVC015
     FM251600 VRB05KT P6SM SCT015 OVC021
      AMD LTD TO CLD VIS AND WIND 2501/2510=

USA.gov is the U.S. government's official web portal to all federal, state and local government web resources and services.